WZZ134 EPWA-LHBP
Flight info
| Callsign | WZZ134 |
|---|---|
| Flight time | N/A |
| Altitude | 34000 |
| Route | EVINA DCT KUKAM DCT BABKO DCT ULPUK DCT EDEMU |
| Aircraft | A320/M-SDE1E2E3FGIJ1J4RWXY/LB1 |
Departure
| Time | 2026-04-30 09:22 |
|---|---|
| Airport | Warsaw Chopin Airport (EPWA) |
Arrival
| Time | N/A |
|---|---|
| Airport | Budapest Liszt Ferenc International Airport (LHBP) |
| Time | Latitude | Longitude | Altitude | Speed | Heading |
|---|---|---|---|---|---|
| 2026-04-30 08:58 | 52.17276 | 20.96600 | 339 ft | 0 kts | 207° |
| 2026-04-30 09:15 | 52.17273 | 20.96597 | 339 ft | 2 kts | 207° |
| 2026-04-30 09:15 | 52.17254 | 20.96575 | 337 ft | 5 kts | 223° |
| 2026-04-30 09:15 | 52.17215 | 20.96553 | 339 ft | 7 kts | 169° |
| 2026-04-30 09:15 | 52.17161 | 20.96598 | 338 ft | 10 kts | 152° |
| 2026-04-30 09:16 | 52.17088 | 20.96662 | 337 ft | 14 kts | 152° |
| 2026-04-30 09:16 | 52.16994 | 20.96744 | 337 ft | 17 kts | 152° |
| 2026-04-30 09:16 | 52.16891 | 20.96833 | 339 ft | 18 kts | 152° |
| 2026-04-30 09:16 | 52.16773 | 20.96937 | 334 ft | 20 kts | 152° |
| 2026-04-30 09:17 | 52.16659 | 20.97062 | 339 ft | 18 kts | 111° |
| 2026-04-30 09:17 | 52.16611 | 20.97242 | 338 ft | 18 kts | 115° |
| 2026-04-30 09:17 | 52.16554 | 20.97445 | 337 ft | 21 kts | 114° |
| 2026-04-30 09:17 | 52.16498 | 20.97642 | 336 ft | 9 kts | 116° |
| 2026-04-30 09:18 | 52.16474 | 20.97729 | 339 ft | 7 kts | 114° |
| 2026-04-30 09:18 | 52.16453 | 20.97796 | 337 ft | 6 kts | 128° |
| 2026-04-30 09:18 | 52.16426 | 20.97810 | 337 ft | 3 kts | 180° |
| 2026-04-30 09:18 | 52.16397 | 20.97792 | 338 ft | 6 kts | 204° |
| 2026-04-30 09:19 | 52.16390 | 20.97787 | 337 ft | 0 kts | 205° |
| 2026-04-30 09:20 | 52.16383 | 20.97782 | 337 ft | 3 kts | 205° |
| 2026-04-30 09:20 | 52.16355 | 20.97760 | 339 ft | 6 kts | 206° |
| 2026-04-30 09:20 | 52.16310 | 20.97716 | 337 ft | 8 kts | 227° |
| 2026-04-30 09:21 | 52.16311 | 20.97648 | 337 ft | 0 kts | 295° |
| 2026-04-30 09:21 | 52.16312 | 20.97646 | 338 ft | 0 kts | 295° |
| 2026-04-30 09:21 | 52.16314 | 20.97637 | 338 ft | 4 kts | 295° |
| 2026-04-30 09:22 | 52.16419 | 20.97268 | 335 ft | 74 kts | 295° |
| 2026-04-30 09:22 | 52.16726 | 20.96174 | 339 ft | 136 kts | 294° |
| 2026-04-30 09:22 | 52.17169 | 20.94643 | 683 ft | 155 kts | 296° |
| 2026-04-30 09:22 | 52.17627 | 20.93033 | 1438 ft | 157 kts | 296° |
| 2026-04-30 09:23 | 52.18082 | 20.91399 | 2169 ft | 162 kts | 296° |
| 2026-04-30 09:23 | 52.18347 | 20.89557 | 2744 ft | 177 kts | 265° |
| 2026-04-30 09:23 | 52.18079 | 20.87494 | 3378 ft | 195 kts | 259° |
| 2026-04-30 09:23 | 52.17736 | 20.85258 | 3948 ft | 210 kts | 258° |
| 2026-04-30 09:24 | 52.17369 | 20.82841 | 4437 ft | 231 kts | 259° |
| 2026-04-30 09:24 | 52.16981 | 20.80192 | 5126 ft | 249 kts | 259° |
| 2026-04-30 09:24 | 52.16577 | 20.77347 | 5845 ft | 266 kts | 259° |
| 2026-04-30 09:24 | 52.16159 | 20.74357 | 6767 ft | 274 kts | 259° |
| 2026-04-30 09:25 | 52.15417 | 20.71451 | 7696 ft | 284 kts | 240° |
| 2026-04-30 09:25 | 52.14106 | 20.68998 | 8598 ft | 293 kts | 220° |
| 2026-04-30 09:25 | 52.12474 | 20.66950 | 9479 ft | 300 kts | 219° |
| 2026-04-30 09:25 | 52.10802 | 20.64855 | 10350 ft | 306 kts | 219° |
| 2026-04-30 09:26 | 52.09100 | 20.62707 | 11077 ft | 316 kts | 219° |
| 2026-04-30 09:26 | 52.07342 | 20.60481 | 11553 ft | 333 kts | 219° |
| 2026-04-30 09:26 | 52.05479 | 20.58118 | 12064 ft | 346 kts | 219° |
| 2026-04-30 09:26 | 52.03558 | 20.55688 | 12799 ft | 352 kts | 219° |
| 2026-04-30 09:27 | 52.01606 | 20.53232 | 13584 ft | 357 kts | 219° |
| 2026-04-30 09:27 | 51.99633 | 20.50756 | 14367 ft | 361 kts | 219° |
| 2026-04-30 09:27 | 51.97626 | 20.48243 | 15024 ft | 367 kts | 217° |
| 2026-04-30 09:27 | 51.95438 | 20.46068 | 15658 ft | 373 kts | 206° |
| 2026-04-30 09:28 | 51.93003 | 20.44548 | 16274 ft | 378 kts | 194° |
| 2026-04-30 09:28 | 51.90409 | 20.43782 | 16895 ft | 381 kts | 183° |
| 2026-04-30 09:28 | 51.87760 | 20.43403 | 17509 ft | 386 kts | 182° |
| 2026-04-30 09:28 | 51.85058 | 20.43012 | 18139 ft | 391 kts | 182° |
| 2026-04-30 09:29 | 51.82319 | 20.42606 | 18768 ft | 397 kts | 182° |
| 2026-04-30 09:29 | 51.79557 | 20.42188 | 19329 ft | 401 kts | 182° |
| 2026-04-30 09:29 | 51.76766 | 20.41759 | 19920 ft | 405 kts | 182° |
| 2026-04-30 09:29 | 51.73946 | 20.41324 | 20518 ft | 409 kts | 182° |
| 2026-04-30 09:30 | 51.71103 | 20.40889 | 21111 ft | 412 kts | 182° |
| 2026-04-30 09:30 | 51.68235 | 20.40452 | 21689 ft | 416 kts | 182° |
| 2026-04-30 09:30 | 51.65333 | 20.40010 | 22261 ft | 420 kts | 182° |
| 2026-04-30 09:30 | 51.62410 | 20.39567 | 22818 ft | 424 kts | 182° |
| 2026-04-30 09:31 | 51.59459 | 20.39120 | 23379 ft | 428 kts | 182° |
| 2026-04-30 09:31 | 51.56483 | 20.38671 | 23944 ft | 432 kts | 182° |
| 2026-04-30 09:31 | 51.53484 | 20.38218 | 24427 ft | 435 kts | 182° |
| 2026-04-30 09:31 | 51.50456 | 20.37764 | 24904 ft | 439 kts | 182° |
| 2026-04-30 09:32 | 51.47403 | 20.37308 | 25369 ft | 442 kts | 182° |
| 2026-04-30 09:32 | 51.44329 | 20.36849 | 25817 ft | 446 kts | 182° |
| 2026-04-30 09:32 | 51.41266 | 20.36390 | 26251 ft | 449 kts | 182° |
| 2026-04-30 09:32 | 51.38165 | 20.35595 | 26708 ft | 455 kts | 191° |
| 2026-04-30 09:33 | 51.35119 | 20.34115 | 27145 ft | 460 kts | 196° |
| 2026-04-30 09:33 | 51.32065 | 20.32500 | 27562 ft | 464 kts | 196° |
| 2026-04-30 09:33 | 51.28988 | 20.30883 | 27974 ft | 467 kts | 196° |
| 2026-04-30 09:33 | 51.25887 | 20.29270 | 28376 ft | 470 kts | 196° |
| 2026-04-30 09:34 | 51.22770 | 20.27659 | 28774 ft | 473 kts | 195° |
| 2026-04-30 09:34 | 51.19626 | 20.26041 | 29167 ft | 476 kts | 196° |
| 2026-04-30 09:34 | 51.16461 | 20.24412 | 29544 ft | 479 kts | 195° |
| 2026-04-30 09:34 | 51.13268 | 20.22771 | 29861 ft | 484 kts | 195° |
| 2026-04-30 09:35 | 51.10057 | 20.21119 | 30229 ft | 487 kts | 195° |
| 2026-04-30 09:35 | 51.06817 | 20.19450 | 30603 ft | 490 kts | 196° |
| 2026-04-30 09:35 | 51.03567 | 20.17778 | 30934 ft | 493 kts | 195° |
| 2026-04-30 09:35 | 51.00296 | 20.16098 | 31291 ft | 495 kts | 195° |
| 2026-04-30 09:36 | 50.97013 | 20.14418 | 31618 ft | 497 kts | 195° |
| 2026-04-30 09:36 | 50.93712 | 20.12735 | 31960 ft | 499 kts | 195° |
| 2026-04-30 09:36 | 50.90401 | 20.11049 | 32308 ft | 500 kts | 195° |
| 2026-04-30 09:36 | 50.87094 | 20.09362 | 32774 ft | 499 kts | 196° |
| 2026-04-30 09:37 | 50.83789 | 20.07675 | 33249 ft | 498 kts | 196° |
| 2026-04-30 09:37 | 50.80494 | 20.05995 | 33423 ft | 495 kts | 196° |
| 2026-04-30 09:37 | 50.77267 | 20.04352 | 33451 ft | 479 kts | 195° |
| 2026-04-30 09:37 | 50.74135 | 20.02759 | 33445 ft | 469 kts | 195° |
| 2026-04-30 09:38 | 50.68955 | 20.00139 | 33446 ft | 471 kts | 195° |
| 2026-04-30 09:38 | 50.62719 | 19.96994 | 33449 ft | 470 kts | 195° |
| 2026-04-30 09:39 | 50.56485 | 19.93861 | 33447 ft | 470 kts | 195° |
| 2026-04-30 09:39 | 50.49254 | 19.90240 | 33445 ft | 469 kts | 195° |
| 2026-04-30 09:40 | 50.44045 | 19.87633 | 33453 ft | 469 kts | 195° |
| 2026-04-30 09:40 | 50.37871 | 19.84548 | 33460 ft | 468 kts | 195° |
| 2026-04-30 09:41 | 50.31627 | 19.81436 | 33467 ft | 468 kts | 195° |
| 2026-04-30 09:41 | 50.25468 | 19.78378 | 33473 ft | 467 kts | 195° |
| 2026-04-30 09:42 | 50.19276 | 19.75313 | 33478 ft | 467 kts | 195° |
| 2026-04-30 09:42 | 50.13090 | 19.72264 | 33484 ft | 466 kts | 195° |
| 2026-04-30 09:43 | 50.06912 | 19.69224 | 33485 ft | 465 kts | 196° |
| 2026-04-30 09:43 | 50.00751 | 19.66193 | 33481 ft | 464 kts | 196° |
| 2026-04-30 09:44 | 49.94588 | 19.63173 | 33472 ft | 464 kts | 196° |
| 2026-04-30 09:44 | 49.88438 | 19.60167 | 33464 ft | 463 kts | 196° |
| 2026-04-30 09:45 | 49.82297 | 19.57173 | 33455 ft | 462 kts | 196° |
| 2026-04-30 09:45 | 49.76162 | 19.54192 | 33450 ft | 462 kts | 196° |
| 2026-04-30 09:46 | 49.70035 | 19.51231 | 33448 ft | 461 kts | 196° |
| 2026-04-30 09:46 | 49.63949 | 19.48391 | 33443 ft | 459 kts | 190° |
| 2026-04-30 09:47 | 49.57649 | 19.47645 | 33434 ft | 452 kts | 171° |
| 2026-04-30 09:47 | 49.51425 | 19.48810 | 33432 ft | 450 kts | 169° |
| 2026-04-30 09:48 | 49.45205 | 19.49973 | 33434 ft | 450 kts | 169° |
| 2026-04-30 09:48 | 49.38989 | 19.51117 | 33432 ft | 450 kts | 170° |
| 2026-04-30 09:49 | 49.32776 | 19.52267 | 33423 ft | 449 kts | 170° |
| 2026-04-30 09:49 | 49.26579 | 19.53422 | 33416 ft | 448 kts | 170° |
| 2026-04-30 09:50 | 49.20389 | 19.54577 | 33415 ft | 448 kts | 170° |
| 2026-04-30 09:50 | 49.14208 | 19.55726 | 33407 ft | 447 kts | 170° |
| 2026-04-30 09:51 | 49.08035 | 19.56860 | 33404 ft | 447 kts | 170° |
| 2026-04-30 09:51 | 49.01867 | 19.57993 | 33397 ft | 446 kts | 170° |
| 2026-04-30 09:52 | 48.95719 | 19.59138 | 33396 ft | 445 kts | 171° |
| 2026-04-30 09:52 | 48.89623 | 19.60269 | 33022 ft | 440 kts | 171° |
| 2026-04-30 09:53 | 48.86594 | 19.60826 | 32534 ft | 436 kts | 171° |
| 2026-04-30 09:53 | 48.83588 | 19.61371 | 32073 ft | 433 kts | 170° |
| 2026-04-30 09:53 | 48.80622 | 19.61908 | 31860 ft | 423 kts | 170° |
| 2026-04-30 09:53 | 48.77695 | 19.62447 | 31786 ft | 427 kts | 169° |
| 2026-04-30 09:54 | 48.74782 | 19.63124 | 31449 ft | 421 kts | 166° |
| 2026-04-30 09:54 | 48.71915 | 19.63960 | 31017 ft | 418 kts | 165° |
| 2026-04-30 09:54 | 48.69081 | 19.64889 | 30618 ft | 415 kts | 163° |
| 2026-04-30 09:54 | 48.66269 | 19.65841 | 30176 ft | 413 kts | 163° |
| 2026-04-30 09:55 | 48.63473 | 19.66774 | 29774 ft | 410 kts | 164° |
| 2026-04-30 09:55 | 48.60697 | 19.67672 | 29391 ft | 406 kts | 164° |
| 2026-04-30 09:55 | 48.57937 | 19.68535 | 29004 ft | 404 kts | 165° |
| 2026-04-30 09:55 | 48.55197 | 19.69370 | 28634 ft | 400 kts | 165° |
| 2026-04-30 09:56 | 48.52475 | 19.70188 | 28264 ft | 397 kts | 165° |
| 2026-04-30 09:56 | 48.49779 | 19.70998 | 27884 ft | 394 kts | 165° |
| 2026-04-30 09:56 | 48.47107 | 19.71803 | 27508 ft | 390 kts | 165° |
| 2026-04-30 09:56 | 48.44459 | 19.72609 | 27133 ft | 387 kts | 165° |
| 2026-04-30 09:57 | 48.41833 | 19.73415 | 26747 ft | 384 kts | 165° |
| 2026-04-30 09:57 | 48.39229 | 19.74215 | 26360 ft | 380 kts | 165° |
| 2026-04-30 09:57 | 48.36648 | 19.75004 | 25978 ft | 377 kts | 165° |
| 2026-04-30 09:57 | 48.34083 | 19.75784 | 25576 ft | 375 kts | 165° |
| 2026-04-30 09:58 | 48.31531 | 19.76555 | 25180 ft | 373 kts | 165° |
| 2026-04-30 09:58 | 48.29029 | 19.77309 | 24780 ft | 371 kts | 165° |
| 2026-04-30 09:58 | 48.26469 | 19.78079 | 24376 ft | 370 kts | 165° |
| 2026-04-30 09:58 | 48.23957 | 19.78836 | 23972 ft | 368 kts | 165° |
| 2026-04-30 09:59 | 48.18982 | 19.80288 | 23119 ft | 364 kts | 169° |
| 2026-04-30 09:59 | 48.13934 | 19.79992 | 22308 ft | 364 kts | 187° |
| 2026-04-30 10:00 | 48.08962 | 19.78809 | 21501 ft | 360 kts | 187° |
| 2026-04-30 10:00 | 48.06499 | 19.78234 | 21095 ft | 358 kts | 187° |
| 2026-04-30 10:01 | 48.01591 | 19.77092 | 20294 ft | 355 kts | 187° |
| 2026-04-30 10:01 | 47.99152 | 19.76525 | 19900 ft | 354 kts | 187° |
| 2026-04-30 10:01 | 47.96718 | 19.75958 | 19499 ft | 353 kts | 187° |
| 2026-04-30 10:02 | 47.91888 | 19.74832 | 18705 ft | 350 kts | 188° |
| 2026-04-30 10:02 | 47.89480 | 19.74274 | 18268 ft | 349 kts | 188° |
| 2026-04-30 10:02 | 47.87095 | 19.73719 | 17884 ft | 345 kts | 188° |
| 2026-04-30 10:02 | 47.84764 | 19.72942 | 17504 ft | 342 kts | 199° |
| 2026-04-30 10:03 | 47.82603 | 19.71494 | 17114 ft | 339 kts | 212° |
| 2026-04-30 10:03 | 47.80716 | 19.69449 | 16737 ft | 334 kts | 224° |
| 2026-04-30 10:03 | 47.79022 | 19.67102 | 16365 ft | 331 kts | 225° |
| 2026-04-30 10:03 | 47.77340 | 19.64782 | 16002 ft | 329 kts | 225° |
| 2026-04-30 10:04 | 47.75663 | 19.62479 | 15629 ft | 327 kts | 225° |
| 2026-04-30 10:04 | 47.74017 | 19.60231 | 15272 ft | 325 kts | 224° |
| 2026-04-30 10:04 | 47.72349 | 19.57963 | 14907 ft | 324 kts | 224° |
| 2026-04-30 10:04 | 47.70691 | 19.55704 | 14538 ft | 323 kts | 225° |
| 2026-04-30 10:05 | 47.69042 | 19.53453 | 14172 ft | 321 kts | 225° |
| 2026-04-30 10:05 | 47.67402 | 19.51218 | 13783 ft | 319 kts | 225° |
| 2026-04-30 10:05 | 47.65775 | 19.48999 | 13418 ft | 316 kts | 224° |
| 2026-04-30 10:05 | 47.64158 | 19.46793 | 13059 ft | 314 kts | 224° |
| 2026-04-30 10:06 | 47.62558 | 19.44606 | 12693 ft | 313 kts | 224° |
| 2026-04-30 10:06 | 47.60959 | 19.42425 | 12310 ft | 311 kts | 224° |
| 2026-04-30 10:06 | 47.59367 | 19.40260 | 11924 ft | 310 kts | 224° |
| 2026-04-30 10:06 | 47.57774 | 19.38101 | 11548 ft | 310 kts | 224° |
| 2026-04-30 10:07 | 47.56186 | 19.35949 | 11163 ft | 310 kts | 223° |
| 2026-04-30 10:07 | 47.54453 | 19.34133 | 11004 ft | 301 kts | 201° |
| 2026-04-30 10:07 | 47.52451 | 19.33642 | 10877 ft | 288 kts | 172° |
| 2026-04-30 10:07 | 47.50600 | 19.34525 | 10732 ft | 275 kts | 145° |
| 2026-04-30 10:08 | 47.49208 | 19.36392 | 10411 ft | 270 kts | 129° |
| 2026-04-30 10:08 | 47.47944 | 19.38448 | 10050 ft | 270 kts | 129° |
| 2026-04-30 10:08 | 47.46678 | 19.40492 | 9731 ft | 269 kts | 129° |
| 2026-04-30 10:08 | 47.45416 | 19.42525 | 9407 ft | 268 kts | 129° |
| 2026-04-30 10:09 | 47.44158 | 19.44546 | 9004 ft | 268 kts | 129° |
| 2026-04-30 10:09 | 47.42904 | 19.46562 | 8498 ft | 266 kts | 129° |
| 2026-04-30 10:09 | 47.41653 | 19.48574 | 8003 ft | 265 kts | 129° |
| 2026-04-30 10:09 | 47.40408 | 19.50574 | 7512 ft | 264 kts | 129° |
| 2026-04-30 10:10 | 47.39065 | 19.52389 | 6943 ft | 266 kts | 159° |
| 2026-04-30 10:10 | 47.37329 | 19.51856 | 6516 ft | 260 kts | 214° |
| 2026-04-30 10:10 | 47.35807 | 19.50218 | 6082 ft | 282 kts | 216° |
| 2026-04-30 10:10 | 47.34189 | 19.48502 | 5489 ft | 290 kts | 218° |
| 2026-04-30 10:11 | 47.32852 | 19.46321 | 4900 ft | 294 kts | 243° |
| 2026-04-30 10:11 | 47.32285 | 19.43447 | 4322 ft | 295 kts | 272° |
| 2026-04-30 10:11 | 47.32794 | 19.40578 | 3743 ft | 291 kts | 305° |